Time;durP1;ratioP1;P1;durP2;ratioP2;P2;SDS_P1;SDS_P2;PMS_P1;PMS_P2;Temp;Humidity;BMP_temperature;BMP_pressure;BME280_temperature;BME280_humidity;BME280_pressure;Samples;Min_cycle;Max_cycle;Signal;HPM_P1;HPM_P2
2022/02/21 00:02:04;;;;;;;24.23;5.72;;;;;;;12.57;70.66;97451.38;4814599;29;120031;-83
2022/02/21 00:04:31;;;;;;;23.05;4.60;;;;;;;12.52;70.84;97452.97;4764082;29;121898;-85
2022/02/21 00:06:58;;;;;;;25.33;4.70;;;;;;;12.60;71.86;97447.53;4765008;29;123385;-85
2022/02/21 00:09:24;;;;;;;23.27;4.13;;;;;;;12.33;71.54;97394.09;4795753;29;120681;-85
2022/02/21 00:11:49;;;;;;;18.73;3.70;;;;;;;12.65;71.42;97437.66;4793127;29;123141;-83
2022/02/21 00:14:15;;;;;;;26.75;4.22;;;;;;;12.65;71.00;97476.91;4794119;29;123358;-84
2022/02/21 00:16:40;;;;;;;23.08;4.03;;;;;;;12.63;71.07;97489.72;4799099;29;119957;-83
2022/02/21 00:19:06;;;;;;;30.35;4.35;;;;;;;12.62;70.69;97480.72;4807537;29;119984;-84
2022/02/21 00:21:32;;;;;;;19.65;4.07;;;;;;;12.72;71.28;97472.72;4809938;29;119752;-83
2022/02/21 00:23:58;;;;;;;17.48;3.60;;;;;;;12.68;70.12;97459.31;4794191;29;119694;-84
2022/02/21 00:26:23;;;;;;;20.40;3.50;;;;;;;12.67;70.64;97463.34;4807305;29;120506;-83
2022/02/21 00:28:49;;;;;;;15.93;3.55;;;;;;;12.63;71.00;97462.94;4809578;29;119643;-82
2022/02/21 00:31:15;;;;;;;20.27;3.75;;;;;;;12.53;69.25;97448.22;4807179;29;122377;-82
2022/02/21 00:33:41;;;;;;;20.90;3.10;;;;;;;12.61;68.98;97449.03;4806848;29;122920;-83
2022/02/21 00:36:07;;;;;;;21.13;3.13;;;;;;;12.50;68.75;97454.81;4796327;29;119985;-83
2022/02/21 00:38:33;;;;;;;13.98;3.40;;;;;;;12.50;68.37;97454.81;4797127;29;119884;-83
2022/02/21 00:40:59;;;;;;;20.10;4.13;;;;;;;12.45;69.88;97436.47;4780090;29;120052;-82
2022/02/21 00:43:24;;;;;;;15.40;3.30;;;;;;;12.55;69.86;97448.44;4795895;29;120679;-81
2022/02/21 00:45:50;;;;;;;13.90;2.65;;;;;;;12.56;69.85;97447.16;4800853;29;123286;-81
2022/02/21 00:48:16;;;;;;;15.02;3.15;;;;;;;12.48;69.98;97471.09;4787106;29;121183;-81
2022/02/21 00:50:42;;;;;;;15.07;3.08;;;;;;;12.45;70.45;97475.66;4804282;29;121240;-81
2022/02/21 00:53:08;;;;;;;14.07;2.55;;;;;;;12.37;69.89;97468.66;4789110;29;123847;-81
2022/02/21 00:55:36;;;;;;;9.23;2.17;;;;;;;12.31;69.60;97465.34;4791513;29;122179;-81
2022/02/21 00:58:03;;;;;;;11.48;2.28;;;;;;;12.34;69.45;97480.75;4773714;29;123812;-80
2022/02/21 01:00:29;;;;;;;10.23;2.30;;;;;;;12.27;69.84;97495.88;4807903;29;120211;-80
2022/02/21 01:02:55;;;;;;;14.27;2.25;;;;;;;12.22;69.60;97503.00;4816710;29;120173;-81
2022/02/21 01:05:21;;;;;;;11.57;2.30;;;;;;;12.22;70.07;97505.75;4793827;29;121556;-81
2022/02/21 01:07:49;;;;;;;10.07;2.05;;;;;;;12.20;69.70;97515.78;4811354;29;121514;-81
2022/02/21 01:10:15;;;;;;;8.32;2.00;;;;;;;12.04;68.23;97519.69;4814440;29;121803;-82
2022/02/21 01:12:43;;;;;;;11.75;1.92;;;;;;;11.93;66.90;97540.66;4793629;29;122693;-80
2022/02/21 01:15:13;;;;;;;17.23;2.45;;;;;;;11.83;67.24;97541.63;4795904;29;120863;-80
2022/02/21 01:17:43;;;;;;;17.67;2.47;;;;;;;11.67;67.13;97538.00;4800611;29;120249;-82
2022/02/21 01:20:10;;;;;;;14.32;3.33;;;;;;;11.54;68.03;97552.47;4795351;29;123153;-82
2022/02/21 01:22:36;;;;;;;15.45;2.55;;;;;;;11.48;68.19;97551.88;4800010;29;119644;-82
2022/02/21 01:25:03;;;;;;;16.40;2.40;;;;;;;11.44;68.23;97559.69;4797737;29;122848;-81
2022/02/21 01:27:29;;;;;;;20.35;3.20;;;;;;;11.41;68.23;97560.75;4795399;29;119900;-82
2022/02/21 01:29:54;;;;;;;21.55;3.65;;;;;;;11.34;68.58;97567.59;4795863;29;122205;-82
2022/02/21 01:32:20;;;;;;;21.52;3.00;;;;;;;11.36;68.82;97576.06;4810016;29;120979;-82
2022/02/21 01:34:46;;;;;;;17.33;3.10;;;;;;;11.34;68.85;97558.63;4796956;29;120530;-81
2022/02/21 01:37:11;;;;;;;19.35;3.40;;;;;;;11.43;70.02;97585.66;4811220;29;120021;-82
2022/02/21 01:39:37;;;;;;;19.55;2.90;;;;;;;11.50;70.29;97593.25;4810547;29;122230;-82
2022/02/21 01:42:06;;;;;;;16.40;2.85;;;;;;;11.50;70.13;97574.03;4812474;29;120103;-83
2022/02/21 01:44:43;;;;;;;14.18;2.67;;;;;;;11.54;70.17;97570.94;4801268;29;122754;-82
2022/02/21 01:47:12;;;;;;;17.77;4.00;;;;;;;11.53;69.91;97581.19;4797397;29;119692;-81
2022/02/21 01:49:37;;;;;;;19.27;4.25;;;;;;;11.44;68.81;97567.94;4779952;29;122311;-82
2022/02/21 01:52:04;;;;;;;29.90;4.75;;;;;;;11.41;68.54;97582.72;4785768;29;123670;-82
2022/02/21 01:54:31;;;;;;;25.08;4.70;;;;;;;11.37;69.71;97588.53;4811344;29;119959;-81
2022/02/21 01:56:57;;;;;;;29.33;5.15;;;;;;;11.38;69.06;97581.78;4809075;29;122302;-79
2022/02/21 01:59:24;;;;;;;33.72;5.65;;;;;;;11.45;68.72;97587.88;4781110;29;123685;-80
2022/02/21 02:01:50;;;;;;;41.28;6.20;;;;;;;11.42;68.63;97594.41;4807742;29;120045;-81
2022/02/21 02:04:16;;;;;;;36.35;6.90;;;;;;;11.46;69.03;97584.59;4775688;29;122521;-80
2022/02/21 02:06:42;;;;;;;37.97;6.40;;;;;;;11.43;69.76;97582.91;4799813;29;121055;-81
2022/02/21 02:09:08;;;;;;;42.40;7.03;;;;;;;11.49;70.44;97572.56;4793123;29;121878;-79
2022/02/21 02:11:36;;;;;;;42.05;8.30;;;;;;;11.56;69.65;97591.09;4787913;29;123455;-79
2022/02/21 02:14:02;;;;;;;44.92;7.30;;;;;;;11.53;70.32;97578.44;4813006;29;119901;-80
2022/02/21 02:16:28;;;;;;;45.85;7.65;;;;;;;11.55;69.94;97597.13;4811252;29;122182;-82
2022/02/21 02:18:53;;;;;;;42.42;7.57;;;;;;;11.64;70.69;97605.69;4808393;29;120518;-81
2022/02/21 02:21:22;;;;;;;42.90;8.75;;;;;;;11.68;70.73;97611.56;4794506;29;120188;-81
2022/02/21 02:23:48;;;;;;;42.47;8.27;;;;;;;11.72;70.20;97616.72;4781527;29;123374;-80
2022/02/21 02:26:16;;;;;;;50.92;8.20;;;;;;;11.71;69.54;97603.53;4798318;29;120026;-82
2022/02/21 02:28:42;;;;;;;40.75;7.65;;;;;;;11.74;70.09;97610.72;4807060;29;121368;-81
2022/02/21 02:31:07;;;;;;;43.55;7.68;;;;;;;11.78;68.80;97633.09;4804147;29;123541;-82
2022/02/21 02:33:33;;;;;;;35.88;7.13;;;;;;;11.71;69.94;97620.00;4795141;29;120554;-81
2022/02/21 02:36:00;;;;;;;39.90;8.35;;;;;;;11.71;69.38;97631.00;4791942;29;121479;-79
2022/02/21 02:38:28;;;;;;;33.55;6.40;;;;;;;11.64;69.36;97633.13;4787033;29;122911;-80
2022/02/21 02:40:54;;;;;;;39.90;7.78;;;;;;;11.72;69.43;97651.69;4786776;29;120273;-81
2022/02/21 02:43:19;;;;;;;33.08;6.85;;;;;;;11.68;69.11;97639.03;4777539;29;121742;-81
2022/02/21 02:45:45;;;;;;;41.10;9.52;;;;;;;11.61;68.38;97656.16;4792114;29;120041;-79
2022/02/21 02:48:11;;;;;;;35.03;6.55;;;;;;;11.56;67.28;97646.00;4800582;29;120397;-81
2022/02/21 02:50:40;;;;;;;45.53;7.72;;;;;;;11.52;68.42;97642.09;4779891;29;121794;-80
2022/02/21 02:53:05;;;;;;;48.50;9.88;;;;;;;11.51;69.84;97655.09;4810753;29;119740;-79
2022/02/21 02:55:31;;;;;;;41.45;8.02;;;;;;;11.46;68.39;97655.22;4795082;29;122685;-79
2022/02/21 02:57:57;;;;;;;37.75;8.23;;;;;;;11.51;68.82;97652.34;4807049;29;120522;-80
2022/02/21 03:00:23;;;;;;;35.55;9.00;;;;;;;11.45;68.25;97673.69;4776139;29;120177;-82
2022/02/21 03:02:51;;;;;;;33.67;6.32;;;;;;;11.37;67.63;97662.59;4805052;29;122365;-80
2022/02/21 03:05:17;;;;;;;35.90;6.65;;;;;;;11.23;67.65;97688.56;4814314;29;123253;-79
2022/02/21 03:07:45;;;;;;;26.38;5.45;;;;;;;11.13;68.78;97700.47;4810992;29;119735;-80
2022/02/21 03:10:14;;;;;;;24.63;5.30;;;;;;;11.11;66.46;97725.66;4813665;29;119785;-78
2022/02/21 03:12:43;;;;;;;15.35;3.30;;;;;;;10.94;65.33;97723.22;4795782;29;119821;-80
2022/02/21 03:15:09;;;;;;;34.95;8.30;;;;;;;10.88;67.10;97732.78;4793846;29;122366;-79
2022/02/21 03:17:37;;;;;;;17.25;3.72;;;;;;;10.79;66.29;97727.69;4811875;29;120218;-79
2022/02/21 03:20:04;;;;;;;18.73;3.85;;;;;;;10.76;66.54;97743.94;4795707;29;120108;-79
2022/02/21 03:22:29;;;;;;;15.32;3.25;;;;;;;10.77;66.89;97758.38;4807731;29;120605;-79
2022/02/21 03:24:56;;;;;;;14.70;3.33;;;;;;;10.72;66.84;97734.53;4796923;29;121572;-82
2022/02/21 03:27:22;;;;;;;11.00;2.50;;;;;;;10.67;66.12;97763.53;4811247;29;120362;-80
2022/02/21 03:29:47;;;;;;;10.95;2.38;;;;;;;10.60;66.20;97777.81;4795024;29;119815;-79
2022/02/21 03:32:13;;;;;;;16.35;3.95;;;;;;;10.56;68.16;97771.16;4794052;29;121126;-80
2022/02/21 03:34:39;;;;;;;12.48;3.20;;;;;;;10.60;67.37;97777.06;4798981;29;119777;-79
2022/02/21 03:37:05;;;;;;;14.73;3.17;;;;;;;10.66;67.96;97791.44;4795025;29;122603;-79
2022/02/21 03:39:30;;;;;;;14.45;2.60;;;;;;;10.65;67.89;97793.44;4808412;29;120060;-80
2022/02/21 03:41:56;;;;;;;13.27;2.95;;;;;;;10.64;66.80;97805.66;4808045;29;120535;-79
2022/02/21 03:44:22;;;;;;;13.05;2.35;;;;;;;10.56;66.30;97787.59;4794421;29;121184;-81
2022/02/21 03:46:47;;;;;;;16.30;2.83;;;;;;;10.56;68.25;97795.81;4809320;29;120258;-79
2022/02/21 03:49:13;;;;;;;12.40;2.58;;;;;;;10.58;66.28;97807.00;4800457;29;119464;-80
2022/02/21 03:51:39;;;;;;;16.40;3.30;;;;;;;10.55;66.52;97816.25;4812021;29;120121;-79
2022/02/21 03:54:05;;;;;;;15.40;3.47;;;;;;;10.60;66.97;97826.41;4796474;29;119951;-79
2022/02/21 03:56:31;;;;;;;20.75;3.63;;;;;;;10.67;66.48;97831.31;4791508;29;122715;-79
2022/02/21 03:58:59;;;;;;;16.98;3.22;;;;;;;10.62;67.59;97821.13;4807605;29;119868;-80
2022/02/21 04:01:25;;;;;;;16.80;3.58;;;;;;;10.61;66.80;97833.34;4809137;29;119867;-79
2022/02/21 04:03:51;;;;;;;16.20;3.72;;;;;;;10.58;67.03;97824.19;4805440;29;122752;-78
2022/02/21 04:06:16;;;;;;;22.65;5.25;;;;;;;10.64;67.87;97865.94;4780600;29;120208;-79
2022/02/21 04:08:42;;;;;;;18.67;4.35;;;;;;;10.67;67.19;97861.47;4796469;29;120319;-79
2022/02/21 04:11:08;;;;;;;21.23;4.85;;;;;;;10.70;65.55;97874.13;4796012;29;123029;-79
2022/02/21 04:13:33;;;;;;;21.40;4.35;;;;;;;10.67;67.26;97886.88;4781734;29;119913;-79
2022/02/21 04:15:59;;;;;;;26.25;4.70;;;;;;;10.63;67.03;97861.00;4812519;29;120050;-81
2022/02/21 04:18:28;;;;;;;25.38;4.60;;;;;;;10.74;66.12;97874.56;4811170;29;120005;-79
2022/02/21 04:20:53;;;;;;;19.92;4.63;;;;;;;10.81;67.59;97893.16;4810106;29;120059;-79
2022/02/21 04:23:19;;;;;;;25.15;4.72;;;;;;;10.86;66.12;97891.59;4792370;29;122363;-79
2022/02/21 04:25:47;;;;;;;28.95;5.50;;;;;;;10.75;65.06;97882.25;4816622;29;119610;-79
2022/02/21 04:28:17;;;;;;;31.75;5.57;;;;;;;10.76;65.60;97893.97;4810971;29;120824;-79
2022/02/21 04:30:43;;;;;;;26.35;5.95;;;;;;;10.66;64.90;97926.50;4793480;29;120326;-78
2022/02/21 04:33:14;;;;;;;22.00;3.92;;;;;;;10.59;64.59;97923.59;4792467;29;121019;-79
2022/02/21 04:35:40;;;;;;;23.58;4.60;;;;;;;10.36;63.93;97914.88;4814846;29;120987;-79
2022/02/21 04:38:05;;;;;;;23.90;5.03;;;;;;;10.11;63.14;97931.28;4797122;29;120074;-79
2022/02/21 04:40:31;;;;;;;24.80;4.78;;;;;;;9.81;64.08;97912.16;4824869;29;119825;-80
2022/02/21 04:42:57;;;;;;;31.65;5.47;;;;;;;9.69;63.64;97929.94;4811525;29;121078;-80
2022/02/21 04:45:23;;;;;;;33.15;5.70;;;;;;;9.53;63.90;97917.13;4814296;29;119728;-80
2022/02/21 04:47:50;;;;;;;35.13;6.10;;;;;;;9.44;64.61;97933.84;4805406;29;120062;-79
2022/02/21 04:50:16;;;;;;;32.80;6.28;;;;;;;9.50;64.89;97951.00;4795103;29;120026;-79
2022/02/21 04:52:42;;;;;;;35.08;6.88;;;;;;;9.45;65.49;97944.28;4812489;29;120336;-80
2022/02/21 04:55:10;;;;;;;38.55;7.28;;;;;;;9.43;65.20;97952.25;4799697;29;119398;-79
2022/02/21 04:57:36;;;;;;;47.25;7.57;;;;;;;9.35;65.81;97939.66;4804309;29;120414;-79
2022/02/21 05:00:05;;;;;;;34.65;6.85;;;;;;;9.42;67.13;97939.84;4798051;29;119573;-80
2022/02/21 05:02:30;;;;;;;44.15;7.88;;;;;;;9.46;66.49;97939.56;4798284;29;121995;-79
2022/02/21 05:04:56;;;;;;;45.47;8.05;;;;;;;9.61;67.82;97961.84;4786934;29;120083;-79
2022/02/21 05:07:21;;;;;;;50.45;8.18;;;;;;;9.61;67.02;97945.41;4797565;29;120999;-79
2022/02/21 05:09:47;;;;;;;42.53;7.82;;;;;;;9.68;67.13;97955.81;4797820;29;120013;-79
2022/02/21 05:12:13;;;;;;;37.08;7.32;;;;;;;9.73;66.64;97960.53;4810836;29;119599;-79
2022/02/21 05:14:38;;;;;;;45.58;8.13;;;;;;;9.74;67.07;97942.09;4796370;29;121194;-79
2022/02/21 05:17:07;;;;;;;26.98;6.70;;;;;;;9.82;66.81;97954.72;4773408;29;123042;-79
2022/02/21 05:19:33;;;;;;;42.45;8.02;;;;;;;9.75;66.24;97960.75;4799597;29;120803;-79
2022/02/21 05:21:58;;;;;;;33.80;7.13;;;;;;;9.77;66.67;97963.72;4796754;29;119872;-79
2022/02/21 05:24:25;;;;;;;38.67;7.13;;;;;;;9.85;68.01;97975.59;4795839;29;124789;-79
2022/02/21 05:26:51;;;;;;;35.20;7.50;;;;;;;9.88;66.80;97967.59;4799343;29;119811;-80
2022/02/21 05:29:17;;;;;;;41.20;7.05;;;;;;;9.99;65.62;97978.47;4813198;29;120498;-79
2022/02/21 05:31:43;;;;;;;37.67;6.90;;;;;;;9.95;66.77;97958.84;4768274;29;120135;-78
2022/02/21 05:34:08;;;;;;;39.22;7.47;;;;;;;10.05;66.67;97968.19;4799774;29;119906;-79
2022/02/21 05:36:34;;;;;;;41.45;8.00;;;;;;;10.05;65.46;97984.63;4813603;29;119954;-79
2022/02/21 05:39:00;;;;;;;38.15;8.13;;;;;;;10.08;65.45;97989.09;4811733;29;119588;-79
2022/02/21 05:41:26;;;;;;;38.90;7.30;;;;;;;10.09;64.73;97999.53;4798402;29;121950;-79
2022/02/21 05:43:51;;;;;;;42.08;7.57;;;;;;;10.06;65.80;98000.56;4798830;29;119748;-79
2022/02/21 05:46:17;;;;;;;42.33;7.90;;;;;;;10.00;65.38;98001.88;4806380;29;120125;-79
2022/02/21 05:48:43;;;;;;;34.78;6.80;;;;;;;10.00;65.09;98004.59;4782745;29;119894;-79
2022/02/21 05:51:08;;;;;;;41.20;7.05;;;;;;;9.95;65.07;98008.13;4810771;29;119979;-79
2022/02/21 05:53:34;;;;;;;28.65;5.63;;;;;;;9.91;64.63;97994.69;4798898;29;119741;-79
2022/02/21 05:56:00;;;;;;;30.98;6.28;;;;;;;9.98;63.41;98007.09;4812442;29;123387;-78
2022/02/21 05:58:25;;;;;;;26.67;5.32;;;;;;;9.94;62.87;98021.09;4803190;29;121388;-79
2022/02/21 06:00:51;;;;;;;30.02;6.07;;;;;;;9.93;65.68;98025.03;4811705;29;121580;-79
2022/02/21 06:03:17;;;;;;;34.13;6.03;;;;;;;10.02;66.31;98032.22;4799550;29;123291;-79
2022/02/21 06:05:46;;;;;;;37.53;6.50;;;;;;;10.03;63.62;98030.97;4809872;29;119436;-79
2022/02/21 06:08:12;;;;;;;33.88;6.05;;;;;;;10.09;66.01;98037.13;4795006;29;123340;-79
2022/02/21 06:10:38;;;;;;;31.08;7.45;;;;;;;10.18;66.00;98038.81;4811798;29;119866;-79
2022/02/21 06:13:04;;;;;;;32.83;7.28;;;;;;;10.21;64.91;98033.09;4820321;29;122253;-78
2022/02/21 06:15:30;;;;;;;37.05;7.00;;;;;;;10.21;62.81;98030.34;4780974;29;122858;-79
2022/02/21 06:17:58;;;;;;;35.95;7.78;;;;;;;10.25;63.61;98024.59;4796977;29;120641;-79
2022/02/21 06:20:25;;;;;;;41.08;7.50;;;;;;;10.24;63.88;98037.53;4816308;29;119910;-79
2022/02/21 06:22:51;;;;;;;38.15;7.93;;;;;;;10.24;64.41;98026.56;4796288;29;120911;-78
2022/02/21 06:25:16;;;;;;;43.53;8.55;;;;;;;10.22;64.24;98036.56;4814989;29;119827;-79
2022/02/21 06:27:42;;;;;;;43.20;8.45;;;;;;;10.26;62.88;98045.25;4795733;29;123163;-78
2022/02/21 06:30:11;;;;;;;46.97;8.68;;;;;;;10.29;64.16;98050.44;4809629;29;119803;-79
2022/02/21 06:32:37;;;;;;;46.15;9.02;;;;;;;10.27;62.90;98052.94;4803334;29;120898;-79
2022/02/21 06:35:03;;;;;;;47.88;9.43;;;;;;;10.33;63.46;98061.84;4817108;29;119907;-79
2022/02/21 06:37:28;;;;;;;44.05;8.23;;;;;;;10.35;63.63;98070.28;4811004;29;120116;-79
2022/02/21 06:39:54;;;;;;;36.80;7.68;;;;;;;10.36;64.25;98060.09;4779622;29;122648;-79
2022/02/21 06:42:20;;;;;;;49.05;8.27;;;;;;;10.37;65.67;98065.03;4795915;29;123420;-79
2022/02/21 06:44:45;;;;;;;43.75;7.85;;;;;;;10.47;65.54;98064.72;4801282;29;121302;-79
2022/02/21 06:47:11;;;;;;;39.75;7.45;;;;;;;10.57;65.32;98065.88;4810557;29;120574;-79
2022/02/21 06:49:38;;;;;;;39.85;7.63;;;;;;;10.55;66.00;98060.16;4811214;29;119674;-79
2022/02/21 06:52:04;;;;;;;41.70;8.95;;;;;;;10.69;63.38;98072.75;4811648;29;119846;-79
2022/02/21 06:54:30;;;;;;;37.28;7.88;;;;;;;10.61;62.47;98047.88;4797453;29;120031;-78
2022/02/21 06:56:55;;;;;;;35.90;7.22;;;;;;;10.71;63.05;98051.03;4808360;29;119723;-78
2022/02/21 06:59:21;;;;;;;32.92;7.57;;;;;;;10.81;63.52;98070.63;4806841;29;119906;-78
2022/02/21 07:01:46;;;;;;;35.60;7.20;;;;;;;10.86;63.50;98072.56;4793201;29;124250;-78
2022/02/21 07:04:12;;;;;;;38.33;7.25;;;;;;;10.80;63.91;98075.34;4782330;29;120504;-78
2022/02/21 07:06:38;;;;;;;37.25;7.43;;;;;;;10.74;62.72;98085.66;4783393;29;122807;-78
2022/02/21 07:09:06;;;;;;;37.28;7.78;;;;;;;10.74;63.09;98071.94;4785877;29;120461;-78
2022/02/21 07:11:32;;;;;;;37.00;6.85;;;;;;;10.69;62.84;98078.97;4794183;29;122459;-79
2022/02/21 07:13:57;;;;;;;29.75;6.47;;;;;;;10.72;62.70;98090.91;4809055;29;121158;-78
2022/02/21 07:16:23;;;;;;;35.03;6.60;;;;;;;10.68;62.86;98090.44;4809852;29;119661;-80
2022/02/21 07:18:49;;;;;;;32.22;6.05;;;;;;;10.72;62.69;98099.88;4781302;29;121796;-78
2022/02/21 07:21:14;;;;;;;27.23;5.90;;;;;;;10.80;62.33;98113.75;4796071;29;120585;-79
2022/02/21 07:23:40;;;;;;;29.77;6.30;;;;;;;10.84;62.47;98116.94;4795126;29;119917;-78
2022/02/21 07:26:06;;;;;;;29.45;6.45;;;;;;;10.86;63.25;98111.69;4811070;29;122001;-78
2022/02/21 07:28:32;;;;;;;28.02;5.53;;;;;;;10.88;62.80;98119.38;4800503;29;120515;-78
2022/02/21 07:30:58;;;;;;;27.52;5.28;;;;;;;10.89;62.36;98124.38;4793128;29;121932;-78
2022/02/21 07:33:24;;;;;;;29.88;5.78;;;;;;;10.84;62.95;98127.91;4795652;29;123778;-78
2022/02/21 07:35:49;;;;;;;30.17;5.65;;;;;;;10.86;62.06;98132.88;4799551;29;119465;-79
2022/02/21 07:38:15;;;;;;;26.45;5.70;;;;;;;10.76;61.93;98121.50;4810350;29;121933;-78
2022/02/21 07:40:41;;;;;;;22.92;5.05;;;;;;;10.68;62.52;98109.63;4794638;29;123273;-78
2022/02/21 07:43:08;;;;;;;26.35;5.22;;;;;;;10.67;63.80;98111.63;4811151;29;120818;-79
2022/02/21 07:45:34;;;;;;;28.63;5.72;;;;;;;10.67;64.07;98124.59;4796536;29;122671;-79
2022/02/21 07:48:03;;;;;;;23.13;4.90;;;;;;;10.68;62.52;98121.34;4778414;29;123826;-78
2022/02/21 07:50:30;;;;;;;24.42;5.22;;;;;;;10.74;64.00;98118.53;4815015;29;120394;-79
2022/02/21 07:52:57;;;;;;;27.77;5.47;;;;;;;10.77;62.09;98121.00;4779468;29;123142;-79
2022/02/21 07:55:24;;;;;;;28.50;5.43;;;;;;;10.83;63.70;98137.38;4810354;29;119772;-79
2022/02/21 07:57:50;;;;;;;29.80;6.20;;;;;;;10.82;62.79;98138.66;4797421;29;120315;-79
2022/02/21 08:00:20;;;;;;;36.22;6.88;;;;;;;10.78;62.84;98140.94;4808700;29;123236;-79
2022/02/21 08:02:46;;;;;;;34.53;6.47;;;;;;;10.73;62.30;98139.00;4796283;29;120507;-79
2022/02/21 08:05:12;;;;;;;28.00;5.63;;;;;;;10.74;61.42;98141.22;4781034;29;121039;-78
2022/02/21 08:07:39;;;;;;;18.50;5.35;;;;;;;10.74;61.83;98154.91;4809471;29;119977;-79
2022/02/21 08:10:05;;;;;;;27.02;5.28;;;;;;;10.82;62.09;98155.09;4793948;29;119628;-78
2022/02/21 08:12:31;;;;;;;30.05;5.53;;;;;;;10.80;62.19;98154.88;4810649;29;119815;-78
2022/02/21 08:14:57;;;;;;;31.35;5.13;;;;;;;10.79;61.33;98149.91;4779519;29;120104;-79
2022/02/21 08:17:24;;;;;;;29.45;5.78;;;;;;;10.78;61.66;98162.88;4807455;29;119910;-78
2022/02/21 08:19:50;;;;;;;30.42;5.82;;;;;;;10.83;63.26;98173.03;4807743;29;120383;-78
2022/02/21 08:22:15;;;;;;;25.92;5.35;;;;;;;10.93;64.18;98171.47;4793755;29;119826;-79
2022/02/21 08:24:41;;;;;;;28.52;5.95;;;;;;;10.93;64.03;98163.22;4809035;29;121719;-79
2022/02/21 08:27:06;;;;;;;27.35;5.75;;;;;;;11.04;64.22;98157.63;4792154;29;123056;-79
2022/02/21 08:29:32;;;;;;;32.05;5.88;;;;;;;11.29;63.07;98196.03;4795526;29;119943;-79
2022/02/21 08:31:59;;;;;;;27.65;5.45;;;;;;;11.33;64.82;98194.47;4797947;29;119987;-78
2022/02/21 08:34:27;;;;;;;24.33;4.57;;;;;;;11.44;65.30;98199.13;4796121;29;121591;-78
2022/02/21 08:36:53;;;;;;;28.58;5.47;;;;;;;11.52;64.52;98196.53;4794452;29;121814;-78
2022/02/21 08:39:19;;;;;;;21.35;4.95;;;;;;;11.56;64.71;98191.50;4808570;29;125766;-78
2022/02/21 08:41:44;;;;;;;24.00;4.65;;;;;;;11.71;63.48;98204.81;4791868;29;120018;-79
2022/02/21 08:44:10;;;;;;;21.15;4.30;;;;;;;11.68;62.28;98188.13;4809248;29;121413;-79
2022/02/21 08:46:36;;;;;;;24.30;4.78;;;;;;;11.72;61.27;98203.56;4792930;29;119922;-78
2022/02/21 08:49:05;;;;;;;26.00;4.93;;;;;;;11.70;60.67;98204.06;4809434;29;120122;-79
2022/02/21 08:51:32;;;;;;;25.83;4.75;;;;;;;11.67;61.83;98216.09;4795046;29;122428;-79
2022/02/21 08:53:57;;;;;;;24.95;4.93;;;;;;;11.55;60.95;98201.00;4797135;29;122227;-78
2022/02/21 08:56:24;;;;;;;27.45;5.35;;;;;;;11.59;61.39;98212.41;4790692;29;120590;-78
2022/02/21 08:58:49;;;;;;;24.65;4.60;;;;;;;11.53;61.98;98209.00;4809729;29;120169;-79
2022/02/21 09:01:15;;;;;;;27.13;4.93;;;;;;;11.66;62.12;98211.84;4794353;29;121238;-79
2022/02/21 09:03:41;;;;;;;27.40;4.57;;;;;;;11.72;60.68;98225.50;4809970;29;119883;-78
2022/02/21 09:06:08;;;;;;;21.92;4.70;;;;;;;11.75;63.37;98222.47;4804991;29;122852;-79
2022/02/21 09:08:34;;;;;;;21.40;4.38;;;;;;;11.83;62.34;98228.91;4793538;29;120512;-79
2022/02/21 09:11:01;;;;;;;22.38;4.97;;;;;;;11.78;62.65;98229.69;4794933;29;119436;-79
2022/02/21 09:13:27;;;;;;;22.80;4.95;;;;;;;11.86;62.50;98236.13;4802107;29;121636;-78
2022/02/21 09:15:52;;;;;;;20.70;4.45;;;;;;;11.79;61.79;98217.47;4811276;29;120558;-78
2022/02/21 09:18:18;;;;;;;20.75;4.25;;;;;;;11.87;60.61;98221.13;4795504;29;120092;-78
2022/02/21 09:20:44;;;;;;;20.38;3.80;;;;;;;11.79;61.33;98231.19;4810422;29;119624;-78
2022/02/21 09:23:10;;;;;;;14.13;3.55;;;;;;;11.86;60.47;98236.13;4806268;29;122361;-82
2022/02/21 09:25:36;;;;;;;10.02;1.98;;;;;;;11.73;58.67;98268.19;4797108;29;120146;-78
2022/02/21 09:28:02;;;;;;;5.65;1.40;;;;;;;11.41;58.61;98249.56;4814116;29;120217;-78
2022/02/21 09:30:28;;;;;;;9.02;1.80;;;;;;;11.17;60.83;98235.81;4781684;29;119851;-78
2022/02/21 09:32:53;;;;;;;7.80;1.50;;;;;;;11.13;61.96;98262.81;4776573;29;120048;-78
2022/02/21 09:35:20;;;;;;;4.28;1.30;;;;;;;11.02;61.08;98267.13;4813079;29;119556;-78
2022/02/21 09:37:46;;;;;;;4.60;1.10;;;;;;;10.92;60.79;98265.97;4784390;29;122514;-79
2022/02/21 09:40:13;;;;;;;6.25;1.40;;;;;;;10.82;60.22;98264.78;4810201;29;119757;-78
2022/02/21 09:42:41;;;;;;;13.07;2.17;;;;;;;10.80;62.79;98258.31;4813043;29;121892;-78
2022/02/21 09:45:07;;;;;;;8.52;2.10;;;;;;;10.86;62.42;98254.28;4797145;29;122681;-79
2022/02/21 09:47:33;;;;;;;9.50;2.55;;;;;;;10.92;62.35;98248.75;4810228;29;119659;-79
2022/02/21 09:50:00;;;;;;;14.07;2.80;;;;;;;10.97;62.71;98254.19;4802318;29;120566;-79
2022/02/21 09:52:26;;;;;;;12.00;2.33;;;;;;;10.96;63.73;98249.97;4783050;29;122740;-79
2022/02/21 09:54:52;;;;;;;14.05;3.33;;;;;;;11.10;64.85;98256.31;4793241;29;120676;-78
2022/02/21 09:57:18;;;;;;;17.42;3.10;;;;;;;11.13;64.58;98265.53;4812950;29;121096;-77
2022/02/21 09:59:44;;;;;;;11.65;2.70;;;;;;;11.14;63.47;98258.81;4813230;29;121079;-78
2022/02/21 10:02:24;;;;;;;11.02;2.67;;;;;;;11.08;62.42;98281.50;4796114;29;120137;-78
2022/02/21 10:05:08;;;;;;;15.18;2.78;;;;;;;11.06;63.43;98305.97;4806923;29;120122;-78
2022/02/21 10:07:36;;;;;;;;;;;;;;;11.00;63.17;98308.03;4813016;29;120137;-78
2022/02/21 10:10:05;;;;;;;13.07;2.63;;;;;;;10.95;63.43;98300.59;4796924;29;121120;-78
2022/02/21 10:12:31;;;;;;;11.40;2.70;;;;;;;10.92;63.32;98300.88;4810575;29;123480;-79
2022/02/21 10:14:57;;;;;;;14.32;3.05;;;;;;;10.96;63.27;98302.06;4813362;29;120306;-78
2022/02/21 10:17:24;;;;;;;12.88;2.53;;;;;;;11.01;63.05;98312.25;4810952;29;122702;-78
2022/02/21 10:20:04;;;;;;;11.98;3.22;;;;;;;10.99;64.00;98300.31;4811148;29;122941;-78
2022/02/21 10:22:32;;;;;;;12.77;3.38;;;;;;;11.07;64.04;98323.91;4818245;29;120523;-78
2022/02/21 10:24:59;;;;;;;12.05;2.90;;;;;;;11.12;63.44;98324.38;4812928;29;119903;-79
2022/02/21 10:27:29;;;;;;;11.07;2.70;;;;;;;11.12;63.76;98324.38;4795019;29;120930;-78
2022/02/21 10:30:04;;;;;;;15.25;2.90;;;;;;;11.14;64.53;98343.84;4795621;29;122844;-78
2022/02/21 10:32:35;;;;;;;12.20;2.50;;;;;;;11.16;63.75;98341.34;4798444;29;119940;-78
2022/02/21 10:35:12;;;;;;;10.65;2.50;;;;;;;11.21;63.34;98346.03;4791779;29;120236;-79
2022/02/21 10:38:03;;;;;;;12.45;2.47;;;;;;;11.22;62.66;98342.03;4786462;29;120716;-78
2022/02/21 10:40:28;;;;;;;15.32;2.95;;;;;;;11.21;63.20;98344.03;4781834;29;124206;-78
2022/02/21 10:43:15;;;;;;;11.38;2.95;;;;;;;11.27;62.34;98341.22;4794421;29;119944;-80
2022/02/21 10:45:42;;;;;;;14.13;3.33;;;;;;;11.26;61.79;98345.22;4808376;29;121730;-79
2022/02/21 10:48:12;;;;;;;14.45;4.15;;;;;;;11.23;62.08;98352.50;4806555;29;120440;-79
2022/02/21 10:50:53;;;;;;;8.82;3.03;;;;;;;11.23;63.45;98349.00;4787403;29;122179;-78
2022/02/21 10:53:23;;;;;;;15.38;3.70;;;;;;;11.33;62.68;98350.91;4789689;29;121332;-77
2022/02/21 10:55:54;;;;;;;17.80;4.15;;;;;;;11.32;63.42;98335.69;4808438;29;120374;-78
2022/02/21 10:58:23;;;;;;;18.58;3.95;;;;;;;11.46;64.16;98349.56;4777459;29;122533;-79
2022/02/21 11:00:49;;;;;;;17.20;4.47;;;;;;;11.64;64.79;98363.38;4799079;29;121448;-78
2022/02/21 11:03:21;;;;;;;25.13;4.93;;;;;;;11.75;63.30;98356.28;4775055;29;120632;-78
2022/02/21 11:05:48;;;;;;;15.45;4.20;;;;;;;11.82;64.99;98367.47;4806732;29;122015;-78
2022/02/21 11:08:18;;;;;;;15.70;4.30;;;;;;;11.90;62.71;98378.66;4799321;29;120629;-79
2022/02/21 11:10:48;;;;;;;19.58;3.95;;;;;;;11.96;62.46;98384.81;4803953;29;122118;-78
2022/02/21 11:13:16;;;;;;;13.07;3.17;;;;;;;12.04;61.07;98393.22;4786833;29;119914;-79
2022/02/21 11:15:42;;;;;;;12.63;3.15;;;;;;;12.08;62.10;98393.72;4788978;29;120000;-79
2022/02/21 11:18:12;;;;;;;13.80;3.63;;;;;;;12.09;60.38;98382.19;4792034;29;119645;-79